Historyczne dane pomiarowe

Dodano dane terminowe – wersja testowa.

Dane z okresu 1951-2019

Wersja bazy: 1.34 [2019-03-16, lista zmian], aktualizacja planowana na 2019-04-15

Dane meteo z obszaru Polski uzyskane na podstawie danych udostępnionych przez Instytut Meteorologii i Gospodarki Wodnej – Państwowy Instytut Badawczy.

 

Wybierz Datę:    

       

TemperaturaWilgotnośćWiatrCiśnienieOpadyŚniegCzas trwania zjawisk
 Stacja t tx tn tng RH VA  wxwx mslp ppp RRR   cm mm wxwxwxwxwxwxwx
1952-02-26 -1.4 0.6 -4.1 -5.5 93.3- 7.7 1.7---- 0.0--x---------
1952-02-27 -5.4 0.5 -8.2 -1.9 78.5- 8.0 2.3---- 0.0--x---------
1952-02-28-10.6 -7.4-12.7-10.0 68.0- 4.0 1.7---- 0.0--x---------
1952-02-29 -7.4 -5.5-15.5-21.1 79.8- 7.3 3.3---- 0.4--x---------
1952-03-01 -3.4 0.4 -6.2 -6.5 79.0- 5.3 8.0---- 0.0-- 15---------
1952-03-02 -5.2 -2.4 -8.3-10.8 75.0- 3.7 11.7---- 0.0-- 15---------
1952-03-03 -5.0 1.1-12.2-13.3 74.5- 2.7 1.0---- 0.0-- 15---------
1952-03-04 -9.0 -3.6-18.3-22.6 67.5- 2.7 1.3---- 1.5-- 15---------
1952-03-05 -5.3 -2.1-10.3-14.9 84.5- 6.7 2.3---- 1.7-- 15---------
1952-03-06 -7.7 -5.1-10.5 -8.8 68.3- 5.3 7.7---- 0.2-- 15---------
1952-03-07 -7.7 -5.7 -9.8-10.7 66.0- 7.3 2.3---- 0.0-- 15---------
1952-03-08 -9.0 -0.9-16.1-20.8 54.8- 0.0 0.7---- 0.0--x---------
1952-03-09 -7.6 -1.3-16.0-20.7 59.8- 0.0 1.0---- 0.0--x---------
1952-03-10 -5.8 2.5-16.7-18.9 69.5- 0.0 1.7---- 0.0--x---------
1952-03-11 -3.1 4.7-10.0-15.8 65.5- 0.0 2.3---- 0.0--x---------
1952-03-12 0.4 1.9 -5.7 -9.8 69.5- 6.7 3.0---- 0.0--x---------
1952-03-13 -0.8 1.5 -2.0-11.0 93.5- 8.0 6.0---- 1.7--x---------
1952-03-14 -8.9 -1.9-11.8 -3.4 74.0- 3.0 8.0---- 0.0--x---------
1952-03-15 -2.5 1.0-13.3-20.0 86.3- 4.7 3.0---- 0.0--x---------
1952-03-16 0.2 3.3 -2.4 -3.4 75.8- 3.3 3.3---- 0.0--x---------
1952-03-17 -1.7 2.1 -3.8 -6.9 85.3- 2.3 3.7---- 0.0--x---------
1952-03-18 -9.4 -3.6-11.4-15.5 55.8- 0.7 2.3---- 0.0--x---------
1952-03-19 -8.2 -2.3-14.7-15.3 57.3- 3.0 3.7---- 0.0--x---------
1952-03-20 -7.0 -3.4-14.0-14.2 75.8- 5.7 5.3---- 0.2--x---------
1952-03-21 -7.9 -2.3-10.0 -6.0 73.8- 6.7 1.3---- 0.2--x---------
1952-03-22-12.8 -5.9-19.0-17.6 64.8- 0.0 1.0---- 0.0--x---------
1952-03-23 -5.6 -3.8-14.0-11.0 76.3- 1.3 2.0---- 0.0--x---------
1952-03-24 -2.8 0.3-10.4-10.1 88.8- 7.3 3.7---- 0.0--x---------
1952-03-25 -7.5 0.1-11.8 1.6 80.0- 5.3 3.3---- 0.0--x---------
1952-03-26-10.0 -4.8-13.0-12.2 81.5- 4.3 1.7---- 0.0--x---------
75.4 ms

 

Źródłem pochodzenia danych jest Instytut Meteorologii i Gospodarki Wodnej – Państwowy Instytut Badawczy. Dane Instytutu Meteorologii i Gospodarki Wodnej – Państwowego Instytutu Badawczego zostały przetworzone.

Dane źródłowe można odnaleźć na stronie https://dane.imgw.pl